sensor_id;sensor_type;location;lat;lon;timestamp;pressure;altitude;pressure_sealevel;temperature;humidity
76753;BME280;65687;51.308;16.916;2023-05-07T00:00:56;100075.85;;;7.95;83.61
76753;BME280;65687;51.308;16.916;2023-05-07T00:05:58;100080.08;;;7.94;83.71
76753;BME280;65687;51.308;16.916;2023-05-07T00:10:59;100084.60;;;7.98;83.83
76753;BME280;65687;51.308;16.916;2023-05-07T00:16:02;100086.88;;;7.94;83.47
76753;BME280;65687;51.308;16.916;2023-05-07T00:21:03;100086.77;;;7.91;83.74
76753;BME280;65687;51.308;16.916;2023-05-07T00:26:05;100091.72;;;7.84;83.43
76753;BME280;65687;51.308;16.916;2023-05-07T00:31:06;100096.09;;;7.77;83.63
76753;BME280;65687;51.308;16.916;2023-05-07T00:36:08;100092.92;;;7.69;83.77
76753;BME280;65687;51.308;16.916;2023-05-07T00:41:09;100096.95;;;7.67;83.94
76753;BME280;65687;51.308;16.916;2023-05-07T00:46:11;100094.77;;;7.63;84.17
76753;BME280;65687;51.308;16.916;2023-05-07T00:51:13;100097.06;;;7.68;84.34
76753;BME280;65687;51.308;16.916;2023-05-07T00:56:15;100099.81;;;7.71;83.87
76753;BME280;65687;51.308;16.916;2023-05-07T01:01:17;100100.55;;;7.68;83.87
76753;BME280;65687;51.308;16.916;2023-05-07T01:06:19;100109.95;;;7.69;83.72
76753;BME280;65687;51.308;16.916;2023-05-07T01:11:22;100106.16;;;7.72;83.51
76753;BME280;65687;51.308;16.916;2023-05-07T01:16:24;100108.30;;;7.66;83.65
76753;BME280;65687;51.308;16.916;2023-05-07T01:21:26;100106.70;;;7.65;83.59
76753;BME280;65687;51.308;16.916;2023-05-07T01:26:28;100105.50;;;7.65;83.84
76753;BME280;65687;51.308;16.916;2023-05-07T01:31:29;100105.02;;;7.57;83.49
76753;BME280;65687;51.308;16.916;2023-05-07T01:36:31;100106.09;;;7.55;83.69
76753;BME280;65687;51.308;16.916;2023-05-07T01:41:33;100108.36;;;7.54;83.65
76753;BME280;65687;51.308;16.916;2023-05-07T01:46:35;100111.67;;;7.56;83.51
76753;BME280;65687;51.308;16.916;2023-05-07T01:51:37;100111.92;;;7.57;83.36
76753;BME280;65687;51.308;16.916;2023-05-07T01:56:39;100115.68;;;7.51;83.67
76753;BME280;65687;51.308;16.916;2023-05-07T02:01:40;100117.27;;;7.52;83.64
76753;BME280;65687;51.308;16.916;2023-05-07T02:06:42;100120.04;;;7.49;83.54
76753;BME280;65687;51.308;16.916;2023-05-07T02:11:43;100123.48;;;7.44;83.62
76753;BME280;65687;51.308;16.916;2023-05-07T02:16:45;100130.98;;;7.43;83.89
76753;BME280;65687;51.308;16.916;2023-05-07T02:21:47;100128.31;;;7.50;83.63
76753;BME280;65687;51.308;16.916;2023-05-07T02:26:49;100129.60;;;7.47;83.57
76753;BME280;65687;51.308;16.916;2023-05-07T02:31:50;100131.93;;;7.38;83.53
76753;BME280;65687;51.308;16.916;2023-05-07T02:36:54;100134.30;;;7.32;83.13
76753;BME280;65687;51.308;16.916;2023-05-07T02:41:55;100137.33;;;7.32;83.04
76753;BME280;65687;51.308;16.916;2023-05-07T02:46:57;100143.38;;;7.34;83.11
76753;BME280;65687;51.308;16.916;2023-05-07T02:51:58;100145.00;;;7.38;82.84
76753;BME280;65687;51.308;16.916;2023-05-07T02:57:00;100147.82;;;7.38;82.84
76753;BME280;65687;51.308;16.916;2023-05-07T03:02:02;100146.38;;;7.36;82.88
76753;BME280;65687;51.308;16.916;2023-05-07T03:07:03;100147.48;;;7.35;82.87
76753;BME280;65687;51.308;16.916;2023-05-07T03:12:05;100147.57;;;7.28;83.06
76753;BME280;65687;51.308;16.916;2023-05-07T03:17:06;100153.23;;;7.27;83.01
76753;BME280;65687;51.308;16.916;2023-05-07T03:22:08;100155.80;;;7.28;82.91
76753;BME280;65687;51.308;16.916;2023-05-07T03:27:09;100160.95;;;7.25;82.91
76753;BME280;65687;51.308;16.916;2023-05-07T03:32:11;100162.39;;;7.22;83.02
76753;BME280;65687;51.308;16.916;2023-05-07T03:37:12;100166.27;;;7.18;83.39
76753;BME280;65687;51.308;16.916;2023-05-07T03:42:14;100178.90;;;7.17;83.55
76753;BME280;65687;51.308;16.916;2023-05-07T03:47:16;100182.17;;;7.14;83.28
76753;BME280;65687;51.308;16.916;2023-05-07T03:52:17;100186.38;;;7.10;83.31
76753;BME280;65687;51.308;16.916;2023-05-07T03:57:23;100194.45;;;7.09;83.19
76753;BME280;65687;51.308;16.916;2023-05-07T04:02:25;100201.89;;;7.07;83.30
76753;BME280;65687;51.308;16.916;2023-05-07T04:07:26;100207.52;;;7.06;83.50
76753;BME280;65687;51.308;16.916;2023-05-07T04:12:28;100217.14;;;7.08;83.62
76753;BME280;65687;51.308;16.916;2023-05-07T04:17:29;100222.02;;;7.09;83.27
76753;BME280;65687;51.308;16.916;2023-05-07T04:22:31;100225.23;;;7.03;83.39
76753;BME280;65687;51.308;16.916;2023-05-07T04:27:32;100231.28;;;7.01;83.38
76753;BME280;65687;51.308;16.916;2023-05-07T04:32:34;100232.34;;;7.02;83.08
76753;BME280;65687;51.308;16.916;2023-05-07T04:37:35;100241.02;;;7.09;83.10
76753;BME280;65687;51.308;16.916;2023-05-07T04:42:37;100249.67;;;7.10;82.92
76753;BME280;65687;51.308;16.916;2023-05-07T04:47:38;100254.64;;;7.07;83.07
76753;BME280;65687;51.308;16.916;2023-05-07T04:52:40;100255.45;;;7.07;83.10
76753;BME280;65687;51.308;16.916;2023-05-07T04:57:41;100255.89;;;7.10;83.04
76753;BME280;65687;51.308;16.916;2023-05-07T05:02:43;100261.59;;;7.16;82.93
76753;BME280;65687;51.308;16.916;2023-05-07T05:07:44;100269.14;;;7.17;82.73
76753;BME280;65687;51.308;16.916;2023-05-07T05:12:46;100278.48;;;7.21;82.49
76753;BME280;65687;51.308;16.916;2023-05-07T05:17:47;100275.28;;;7.24;82.36
76753;BME280;65687;51.308;16.916;2023-05-07T05:22:49;100278.90;;;7.28;82.39
76753;BME280;65687;51.308;16.916;2023-05-07T05:27:50;100283.00;;;7.29;82.12
76753;BME280;65687;51.308;16.916;2023-05-07T05:32:52;100282.42;;;7.28;81.91
76753;BME280;65687;51.308;16.916;2023-05-07T05:37:53;100286.50;;;7.20;81.54
76753;BME280;65687;51.308;16.916;2023-05-07T05:42:55;100293.91;;;7.16;81.67
76753;BME280;65687;51.308;16.916;2023-05-07T05:47:57;100301.42;;;7.24;81.41
76753;BME280;65687;51.308;16.916;2023-05-07T05:52:58;100301.10;;;7.28;81.48
76753;BME280;65687;51.308;16.916;2023-05-07T05:58:00;100300.88;;;7.33;81.35
76753;BME280;65687;51.308;16.916;2023-05-07T06:03:02;100304.94;;;7.37;81.37
76753;BME280;65687;51.308;16.916;2023-05-07T06:08:04;100306.15;;;7.40;81.14
76753;BME280;65687;51.308;16.916;2023-05-07T06:13:05;100309.70;;;7.40;80.93
76753;BME280;65687;51.308;16.916;2023-05-07T06:18:07;100315.96;;;7.39;80.63
76753;BME280;65687;51.308;16.916;2023-05-07T06:23:08;100319.75;;;7.38;80.66
76753;BME280;65687;51.308;16.916;2023-05-07T06:28:10;100326.47;;;7.36;80.68
76753;BME280;65687;51.308;16.916;2023-05-07T06:33:12;100334.92;;;7.32;80.37
76753;BME280;65687;51.308;16.916;2023-05-07T06:38:14;100340.09;;;7.36;80.53
76753;BME280;65687;51.308;16.916;2023-05-07T06:43:15;100343.43;;;7.40;79.99
76753;BME280;65687;51.308;16.916;2023-05-07T06:48:16;100350.22;;;7.48;79.57
76753;BME280;65687;51.308;16.916;2023-05-07T06:53:18;100352.88;;;7.52;79.10
76753;BME280;65687;51.308;16.916;2023-05-07T06:58:20;100358.30;;;7.50;78.82
76753;BME280;65687;51.308;16.916;2023-05-07T07:03:21;100356.91;;;7.50;79.10
76753;BME280;65687;51.308;16.916;2023-05-07T07:08:22;100357.25;;;7.48;79.11
76753;BME280;65687;51.308;16.916;2023-05-07T07:13:24;100351.94;;;7.53;79.03
76753;BME280;65687;51.308;16.916;2023-05-07T07:18:25;100360.83;;;7.58;79.03
76753;BME280;65687;51.308;16.916;2023-05-07T07:23:27;100364.66;;;7.62;79.06
76753;BME280;65687;51.308;16.916;2023-05-07T07:28:28;100372.60;;;7.60;79.17
76753;BME280;65687;51.308;16.916;2023-05-07T07:33:30;100384.44;;;7.61;79.52
76753;BME280;65687;51.308;16.916;2023-05-07T07:38:32;100386.82;;;7.69;78.86
76753;BME280;65687;51.308;16.916;2023-05-07T07:43:34;100397.11;;;7.65;79.01
76753;BME280;65687;51.308;16.916;2023-05-07T07:48:35;100397.75;;;7.73;79.28
76753;BME280;65687;51.308;16.916;2023-05-07T07:53:37;100401.85;;;7.78;79.03
76753;BME280;65687;51.308;16.916;2023-05-07T07:58:38;100406.35;;;7.82;78.63
76753;BME280;65687;51.308;16.916;2023-05-07T08:03:40;100405.48;;;7.91;78.70
76753;BME280;65687;51.308;16.916;2023-05-07T08:08:42;100415.83;;;7.98;78.13
76753;BME280;65687;51.308;16.916;2023-05-07T08:13:43;100413.08;;;7.89;78.00
76753;BME280;65687;51.308;16.916;2023-05-07T08:18:46;100417.05;;;7.75;78.68
76753;BME280;65687;51.308;16.916;2023-05-07T08:23:47;100419.70;;;7.68;78.95
76753;BME280;65687;51.308;16.916;2023-05-07T08:28:49;100422.79;;;7.65;78.91
76753;BME280;65687;51.308;16.916;2023-05-07T08:33:50;100424.92;;;7.69;78.96
76753;BME280;65687;51.308;16.916;2023-05-07T08:38:52;100432.20;;;7.67;78.39
76753;BME280;65687;51.308;16.916;2023-05-07T08:43:57;100438.19;;;7.68;78.81
76753;BME280;65687;51.308;16.916;2023-05-07T08:48:59;100448.17;;;7.65;78.53
76753;BME280;65687;51.308;16.916;2023-05-07T08:54:01;100452.08;;;7.58;78.49
76753;BME280;65687;51.308;16.916;2023-05-07T08:59:03;100462.25;;;7.63;78.84
76753;BME280;65687;51.308;16.916;2023-05-07T09:04:04;100471.90;;;7.71;78.55
76753;BME280;65687;51.308;16.916;2023-05-07T09:09:08;100483.39;;;7.74;77.80
76753;BME280;65687;51.308;16.916;2023-05-07T09:14:09;100496.30;;;7.71;77.90
76753;BME280;65687;51.308;16.916;2023-05-07T09:19:11;100495.29;;;7.67;77.51
76753;BME280;65687;51.308;16.916;2023-05-07T09:24:15;100490.66;;;7.67;77.64
76753;BME280;65687;51.308;16.916;2023-05-07T09:29:18;100490.15;;;7.66;77.55
76753;BME280;65687;51.308;16.916;2023-05-07T09:34:19;100492.20;;;7.70;77.56
76753;BME280;65687;51.308;16.916;2023-05-07T09:39:21;100487.61;;;7.78;77.84
76753;BME280;65687;51.308;16.916;2023-05-07T09:44:23;100485.47;;;7.79;77.35
76753;BME280;65687;51.308;16.916;2023-05-07T09:49:28;100481.88;;;7.76;77.06
76753;BME280;65687;51.308;16.916;2023-05-07T09:54:31;100484.03;;;7.87;76.87
76753;BME280;65687;51.308;16.916;2023-05-07T09:59:34;100484.20;;;8.09;76.62
76753;BME280;65687;51.308;16.916;2023-05-07T10:04:36;100485.52;;;8.28;76.03
76753;BME280;65687;51.308;16.916;2023-05-07T10:09:38;100489.52;;;8.31;74.44
76753;BME280;65687;51.308;16.916;2023-05-07T10:14:41;100495.71;;;8.31;73.75
76753;BME280;65687;51.308;16.916;2023-05-07T10:19:44;100502.77;;;8.31;73.91
76753;BME280;65687;51.308;16.916;2023-05-07T10:24:48;100503.84;;;8.37;74.19
76753;BME280;65687;51.308;16.916;2023-05-07T10:34:54;100503.91;;;8.53;73.45
76753;BME280;65687;51.308;16.916;2023-05-07T10:39:57;100503.52;;;8.58;73.26
76753;BME280;65687;51.308;16.916;2023-05-07T10:45:11;100504.36;;;8.58;73.09
76753;BME280;65687;51.308;16.916;2023-05-07T11:05:24;100500.92;;;8.85;72.96
76753;BME280;65687;51.308;16.916;2023-05-07T11:10:55;100499.16;;;8.95;72.10
76753;BME280;65687;51.308;16.916;2023-05-07T11:15:57;100499.20;;;9.02;72.24
76753;BME280;65687;51.308;16.916;2023-05-07T11:21:00;100503.76;;;9.14;73.01
76753;BME280;65687;51.308;16.916;2023-05-07T11:31:08;100515.62;;;9.11;71.70
76753;BME280;65687;51.308;16.916;2023-05-07T11:36:10;100523.59;;;9.09;71.92
76753;BME280;65687;51.308;16.916;2023-05-07T11:41:12;100525.87;;;9.06;71.62
76753;BME280;65687;51.308;16.916;2023-05-07T11:46:13;100538.38;;;9.04;71.77
76753;BME280;65687;51.308;16.916;2023-05-07T11:51:19;100535.52;;;9.15;72.04
76753;BME280;65687;51.308;16.916;2023-05-07T11:56:21;100539.65;;;9.24;70.98
76753;BME280;65687;51.308;16.916;2023-05-07T12:01:22;100541.28;;;9.40;71.19
76753;BME280;65687;51.308;16.916;2023-05-07T12:06:24;100548.93;;;9.51;71.43
76753;BME280;65687;51.308;16.916;2023-05-07T12:11:25;100546.05;;;9.47;70.59
76753;BME280;65687;51.308;16.916;2023-05-07T12:16:27;100548.89;;;9.45;70.94
76753;BME280;65687;51.308;16.916;2023-05-07T12:21:29;100550.09;;;9.39;70.25
76753;BME280;65687;51.308;16.916;2023-05-07T12:26:31;100557.75;;;9.35;70.64
76753;BME280;65687;51.308;16.916;2023-05-07T12:31:32;100559.89;;;9.37;70.14
76753;BME280;65687;51.308;16.916;2023-05-07T12:36:38;100563.89;;;9.40;70.32
76753;BME280;65687;51.308;16.916;2023-05-07T12:41:57;100563.30;;;9.45;70.11
76753;BME280;65687;51.308;16.916;2023-05-07T12:47:02;100559.40;;;9.53;69.91
76753;BME280;65687;51.308;16.916;2023-05-07T12:52:04;100561.45;;;9.62;69.44
76753;BME280;65687;51.308;16.916;2023-05-07T12:57:08;100560.67;;;9.74;69.71
76753;BME280;65687;51.308;16.916;2023-05-07T13:02:09;100563.28;;;9.72;68.88
76753;BME280;65687;51.308;16.916;2023-05-07T13:07:11;100567.35;;;9.66;68.63
76753;BME280;65687;51.308;16.916;2023-05-07T13:12:12;100572.18;;;9.70;68.57
76753;BME280;65687;51.308;16.916;2023-05-07T13:17:14;100578.45;;;9.74;68.94
76753;BME280;65687;51.308;16.916;2023-05-07T13:22:15;100583.61;;;9.76;68.46
76753;BME280;65687;51.308;16.916;2023-05-07T13:27:17;100588.13;;;9.71;69.07
76753;BME280;65687;51.308;16.916;2023-05-07T13:32:20;100588.66;;;9.71;68.95
76753;BME280;65687;51.308;16.916;2023-05-07T13:37:21;100590.67;;;9.76;69.14
76753;BME280;65687;51.308;16.916;2023-05-07T13:42:23;100590.86;;;9.74;68.67
76753;BME280;65687;51.308;16.916;2023-05-07T13:47:24;100594.09;;;9.70;68.44
76753;BME280;65687;51.308;16.916;2023-05-07T13:52:26;100594.96;;;9.68;68.22
76753;BME280;65687;51.308;16.916;2023-05-07T13:57:27;100596.93;;;9.59;68.32
76753;BME280;65687;51.308;16.916;2023-05-07T14:02:29;100602.63;;;9.54;69.03
76753;BME280;65687;51.308;16.916;2023-05-07T14:07:30;100603.63;;;9.52;68.71
76753;BME280;65687;51.308;16.916;2023-05-07T14:12:32;100606.14;;;9.48;68.85
76753;BME280;65687;51.308;16.916;2023-05-07T14:17:34;100605.12;;;9.46;69.03
76753;BME280;65687;51.308;16.916;2023-05-07T14:22:36;100604.45;;;9.43;69.11
76753;BME280;65687;51.308;16.916;2023-05-07T14:27:37;100607.24;;;9.35;69.07
76753;BME280;65687;51.308;16.916;2023-05-07T14:32:39;100605.77;;;9.31;68.67
76753;BME280;65687;51.308;16.916;2023-05-07T14:37:40;100606.16;;;9.30;69.02
76753;BME280;65687;51.308;16.916;2023-05-07T14:42:42;100613.31;;;9.37;68.46
76753;BME280;65687;51.308;16.916;2023-05-07T14:47:43;100615.33;;;9.40;67.86
76753;BME280;65687;51.308;16.916;2023-05-07T14:52:45;100615.57;;;9.37;67.70
76753;BME280;65687;51.308;16.916;2023-05-07T14:57:46;100622.73;;;9.38;68.16
76753;BME280;65687;51.308;16.916;2023-05-07T15:02:48;100620.83;;;9.42;67.69
76753;BME280;65687;51.308;16.916;2023-05-07T15:07:49;100621.39;;;9.38;67.34
76753;BME280;65687;51.308;16.916;2023-05-07T15:12:51;100613.11;;;9.42;67.24
76753;BME280;65687;51.308;16.916;2023-05-07T15:17:52;100617.67;;;9.49;67.03
76753;BME280;65687;51.308;16.916;2023-05-07T15:22:54;100621.96;;;9.57;66.66
76753;BME280;65687;51.308;16.916;2023-05-07T15:27:57;100622.04;;;9.56;66.65
76753;BME280;65687;51.308;16.916;2023-05-07T15:32:58;100621.98;;;9.60;67.95
76753;BME280;65687;51.308;16.916;2023-05-07T15:38:00;100626.30;;;9.61;67.43
76753;BME280;65687;51.308;16.916;2023-05-07T15:43:04;100627.54;;;9.55;67.07
76753;BME280;65687;51.308;16.916;2023-05-07T15:48:06;100624.00;;;9.54;66.91
76753;BME280;65687;51.308;16.916;2023-05-07T15:53:08;100621.97;;;9.62;67.18
76753;BME280;65687;51.308;16.916;2023-05-07T15:58:10;100622.25;;;9.65;67.53
76753;BME280;65687;51.308;16.916;2023-05-07T16:03:12;100615.09;;;9.64;67.71
76753;BME280;65687;51.308;16.916;2023-05-07T16:08:13;100612.58;;;9.60;67.07
76753;BME280;65687;51.308;16.916;2023-05-07T16:13:15;100616.14;;;9.56;67.21
76753;BME280;65687;51.308;16.916;2023-05-07T16:18:19;100622.69;;;9.54;67.30
76753;BME280;65687;51.308;16.916;2023-05-07T16:23:21;100619.91;;;9.55;67.45
76753;BME280;65687;51.308;16.916;2023-05-07T16:28:22;100624.98;;;9.53;67.45
76753;BME280;65687;51.308;16.916;2023-05-07T16:33:24;100633.48;;;9.48;66.41
76753;BME280;65687;51.308;16.916;2023-05-07T16:38:26;100634.28;;;9.43;65.66
76753;BME280;65687;51.308;16.916;2023-05-07T16:43:29;100638.98;;;9.41;65.80
76753;BME280;65687;51.308;16.916;2023-05-07T16:48:30;100639.33;;;9.39;65.95
76753;BME280;65687;51.308;16.916;2023-05-07T16:53:32;100637.96;;;9.35;66.26
76753;BME280;65687;51.308;16.916;2023-05-07T16:58:33;100635.51;;;9.30;65.85
76753;BME280;65687;51.308;16.916;2023-05-07T17:03:35;100638.15;;;9.23;65.66
76753;BME280;65687;51.308;16.916;2023-05-07T17:08:36;100634.09;;;9.17;65.16
76753;BME280;65687;51.308;16.916;2023-05-07T17:13:38;100634.41;;;9.12;64.70
76753;BME280;65687;51.308;16.916;2023-05-07T17:18:41;100639.88;;;9.13;64.69
76753;BME280;65687;51.308;16.916;2023-05-07T17:23:42;100640.35;;;9.11;63.90
76753;BME280;65687;51.308;16.916;2023-05-07T17:28:44;100646.05;;;9.07;63.85
76753;BME280;65687;51.308;16.916;2023-05-07T17:33:46;100655.02;;;9.05;64.14
76753;BME280;65687;51.308;16.916;2023-05-07T17:38:47;100658.38;;;9.01;64.24
76753;BME280;65687;51.308;16.916;2023-05-07T17:43:49;100663.15;;;8.96;64.34
76753;BME280;65687;51.308;16.916;2023-05-07T17:48:50;100657.25;;;8.92;64.96
76753;BME280;65687;51.308;16.916;2023-05-07T17:53:52;100658.89;;;8.89;65.31
76753;BME280;65687;51.308;16.916;2023-05-07T17:58:53;100669.20;;;8.84;65.41
76753;BME280;65687;51.308;16.916;2023-05-07T18:03:56;100670.05;;;8.83;64.99
76753;BME280;65687;51.308;16.916;2023-05-07T18:08:57;100672.60;;;8.83;64.48
76753;BME280;65687;51.308;16.916;2023-05-07T18:13:59;100669.73;;;8.81;63.48
76753;BME280;65687;51.308;16.916;2023-05-07T18:19:01;100676.45;;;8.77;63.53
76753;BME280;65687;51.308;16.916;2023-05-07T18:24:02;100683.52;;;8.73;63.13
76753;BME280;65687;51.308;16.916;2023-05-07T18:29:05;100689.52;;;8.69;63.03
76753;BME280;65687;51.308;16.916;2023-05-07T18:34:06;100689.48;;;8.67;63.30
76753;BME280;65687;51.308;16.916;2023-05-07T18:39:10;100694.19;;;8.64;63.58
76753;BME280;65687;51.308;16.916;2023-05-07T18:44:12;100698.27;;;8.61;64.61
76753;BME280;65687;51.308;16.916;2023-05-07T18:49:13;100704.52;;;8.59;64.85
76753;BME280;65687;51.308;16.916;2023-05-07T18:54:15;100710.10;;;8.60;65.02
76753;BME280;65687;51.308;16.916;2023-05-07T18:59:17;100708.58;;;8.60;64.89
76753;BME280;65687;51.308;16.916;2023-05-07T19:04:18;100711.85;;;8.58;65.00
76753;BME280;65687;51.308;16.916;2023-05-07T19:09:20;100716.07;;;8.58;65.23
76753;BME280;65687;51.308;16.916;2023-05-07T19:14:22;100721.00;;;8.55;65.33
76753;BME280;65687;51.308;16.916;2023-05-07T19:19:25;100730.70;;;8.53;65.60
76753;BME280;65687;51.308;16.916;2023-05-07T19:24:27;100738.90;;;8.48;65.72
76753;BME280;65687;51.308;16.916;2023-05-07T19:29:28;100746.07;;;8.46;65.95
76753;BME280;65687;51.308;16.916;2023-05-07T19:34:30;100746.97;;;8.44;66.34
76753;BME280;65687;51.308;16.916;2023-05-07T19:39:32;100744.66;;;8.43;66.79
76753;BME280;65687;51.308;16.916;2023-05-07T19:44:33;100754.48;;;8.41;66.63
76753;BME280;65687;51.308;16.916;2023-05-07T19:49:35;100754.17;;;8.36;66.36
76753;BME280;65687;51.308;16.916;2023-05-07T19:54:36;100762.80;;;8.37;66.35
76753;BME280;65687;51.308;16.916;2023-05-07T19:59:38;100768.02;;;8.40;66.63
76753;BME280;65687;51.308;16.916;2023-05-07T20:04:40;100770.20;;;8.46;66.80
76753;BME280;65687;51.308;16.916;2023-05-07T20:09:42;100769.27;;;8.47;67.08
76753;BME280;65687;51.308;16.916;2023-05-07T20:14:43;100774.02;;;8.43;67.27
76753;BME280;65687;51.308;16.916;2023-05-07T20:19:45;100771.13;;;8.39;67.51
76753;BME280;65687;51.308;16.916;2023-05-07T20:24:46;100770.33;;;8.30;67.77
76753;BME280;65687;51.308;16.916;2023-05-07T20:29:48;100776.88;;;8.23;67.92
76753;BME280;65687;51.308;16.916;2023-05-07T20:34:49;100774.77;;;8.20;66.80
76753;BME280;65687;51.308;16.916;2023-05-07T20:39:51;100775.52;;;8.23;66.47
76753;BME280;65687;51.308;16.916;2023-05-07T20:44:53;100776.43;;;8.22;66.29
76753;BME280;65687;51.308;16.916;2023-05-07T20:49:55;100782.95;;;8.22;66.19
76753;BME280;65687;51.308;16.916;2023-05-07T20:54:57;100787.66;;;8.18;65.76
76753;BME280;65687;51.308;16.916;2023-05-07T20:59:58;100793.13;;;8.11;65.90
76753;BME280;65687;51.308;16.916;2023-05-07T21:05:00;100794.69;;;8.00;66.14
76753;BME280;65687;51.308;16.916;2023-05-07T21:10:02;100795.90;;;7.93;66.27
76753;BME280;65687;51.308;16.916;2023-05-07T21:15:04;100804.48;;;7.88;66.26
76753;BME280;65687;51.308;16.916;2023-05-07T21:20:06;100808.98;;;7.80;66.61
76753;BME280;65687;51.308;16.916;2023-05-07T21:25:08;100814.73;;;7.71;66.77
76753;BME280;65687;51.308;16.916;2023-05-07T21:30:10;100820.64;;;7.60;67.35
76753;BME280;65687;51.308;16.916;2023-05-07T21:35:11;100819.11;;;7.46;67.79
76753;BME280;65687;51.308;16.916;2023-05-07T21:40:13;100819.20;;;7.36;68.33
76753;BME280;65687;51.308;16.916;2023-05-07T21:45:15;100818.75;;;7.33;68.37
76753;BME280;65687;51.308;16.916;2023-05-07T21:50:17;100821.42;;;7.24;69.26
76753;BME280;65687;51.308;16.916;2023-05-07T21:55:19;100827.79;;;7.11;69.92
76753;BME280;65687;51.308;16.916;2023-05-07T22:00:21;100833.73;;;6.92;70.36
76753;BME280;65687;51.308;16.916;2023-05-07T22:05:23;100831.19;;;6.73;70.78
76753;BME280;65687;51.308;16.916;2023-05-07T22:10:25;100826.61;;;6.56;71.49
76753;BME280;65687;51.308;16.916;2023-05-07T22:15:26;100827.24;;;6.44;71.80
76753;BME280;65687;51.308;16.916;2023-05-07T22:20:28;100828.86;;;6.33;72.39
76753;BME280;65687;51.308;16.916;2023-05-07T22:25:31;100818.41;;;6.24;72.87
76753;BME280;65687;51.308;16.916;2023-05-07T22:30:34;100818.70;;;6.15;73.00
76753;BME280;65687;51.308;16.916;2023-05-07T22:35:36;100814.93;;;6.04;73.49
76753;BME280;65687;51.308;16.916;2023-05-07T22:40:37;100809.89;;;5.94;73.72
76753;BME280;65687;51.308;16.916;2023-05-07T22:45:39;100813.67;;;5.88;74.04
76753;BME280;65687;51.308;16.916;2023-05-07T22:50:40;100807.44;;;5.85;74.38
76753;BME280;65687;51.308;16.916;2023-05-07T22:55:42;100798.64;;;5.82;74.33
76753;BME280;65687;51.308;16.916;2023-05-07T23:00:43;100805.49;;;5.73;74.52
76753;BME280;65687;51.308;16.916;2023-05-07T23:05:45;100806.36;;;5.64;74.80
76753;BME280;65687;51.308;16.916;2023-05-07T23:10:46;100808.65;;;5.60;74.89
76753;BME280;65687;51.308;16.916;2023-05-07T23:15:48;100813.65;;;5.58;74.80
76753;BME280;65687;51.308;16.916;2023-05-07T23:20:50;100813.80;;;5.56;74.76
76753;BME280;65687;51.308;16.916;2023-05-07T23:25:52;100820.54;;;5.48;74.83
76753;BME280;65687;51.308;16.916;2023-05-07T23:30:53;100816.11;;;5.37;75.02
76753;BME280;65687;51.308;16.916;2023-05-07T23:36:03;100821.17;;;5.23;75.33
76753;BME280;65687;51.308;16.916;2023-05-07T23:41:04;100818.16;;;5.11;75.83
76753;BME280;65687;51.308;16.916;2023-05-07T23:46:06;100816.05;;;5.06;75.91
76753;BME280;65687;51.308;16.916;2023-05-07T23:51:07;100806.38;;;5.02;76.25
76753;BME280;65687;51.308;16.916;2023-05-07T23:56:09;100797.90;;;4.97;76.66
